Time;durP1;ratioP1;P1;durP2;ratioP2;P2;SDS_P1;SDS_P2;PMS_P1;PMS_P2;Temp;Humidity;BMP_temperature;BMP_pressure;BME280_temperature;BME280_humidity;BME280_pressure;Samples;Min_cycle;Max_cycle;Signal;HPM_P1;HPM_P2
2022/09/30 00:01:31;;;;;;;7.70;6.85;;;;;;;6.34;89.18;100747.31;5080304;28;20079;-57
2022/09/30 00:03:57;;;;;;;10.00;6.95;;;;;;;6.30;89.24;100744.88;5081659;28;20087;-56
2022/09/30 00:06:24;;;;;;;7.60;6.80;;;;;;;6.28;89.03;100748.56;5074207;28;20071;-57
2022/09/30 00:08:49;;;;;;;10.63;6.63;;;;;;;6.24;88.28;100752.31;5082868;28;20032;-58
2022/09/30 00:11:18;;;;;;;7.55;6.60;;;;;;;6.22;88.69;100751.56;5082977;28;20013;-57
2022/09/30 00:13:46;;;;;;;9.48;6.97;;;;;;;6.16;88.68;100754.53;5078128;28;20048;-58
2022/09/30 00:16:13;;;;;;;10.77;8.05;;;;;;;6.15;88.83;100761.63;5071635;28;20083;-55
2022/09/30 00:18:39;;;;;;;11.93;8.60;;;;;;;6.09;89.26;100754.91;5072115;28;20033;-57
2022/09/30 00:21:05;;;;;;;10.30;8.48;;;;;;;6.10;89.33;100756.59;5072238;28;20080;-54
2022/09/30 00:23:30;;;;;;;9.23;8.25;;;;;;;6.07;89.04;100758.59;5082141;28;20025;-58
2022/09/30 00:25:58;;;;;;;8.65;7.78;;;;;;;6.06;89.48;100757.75;5085847;28;20052;-57
2022/09/30 00:28:23;;;;;;;8.32;7.53;;;;;;;6.05;89.46;100756.03;5077626;28;20021;-56
2022/09/30 00:30:48;;;;;;;9.82;8.23;;;;;;;6.04;89.19;100756.97;5084175;28;20047;-57
2022/09/30 00:33:14;;;;;;;9.30;8.32;;;;;;;6.01;89.28;100757.16;5076597;28;20092;-57
2022/09/30 00:35:39;;;;;;;8.63;7.82;;;;;;;6.03;89.29;100757.06;5071015;28;20028;-58
2022/09/30 00:38:04;;;;;;;9.35;7.95;;;;;;;5.98;89.03;100770.53;5075170;28;20040;-56
2022/09/30 00:40:30;;;;;;;8.70;7.90;;;;;;;5.95;89.01;100760.13;5076377;28;20025;-57
2022/09/30 00:42:57;;;;;;;10.63;7.78;;;;;;;5.91;89.05;100756.81;5076231;28;20073;-57
2022/09/30 00:45:25;;;;;;;10.00;7.82;;;;;;;5.87;89.02;100751.81;5070768;28;20025;-56
2022/09/30 00:48:14;;;;;;;11.82;8.18;;;;;;;5.87;89.07;100757.09;5075909;28;20058;-57
2022/09/30 00:53:16;;;;;;;10.57;7.90;;;;;;;5.80;88.76;100758.41;5107225;22;20041;-79
2022/09/30 00:56:08;;;;;;;9.70;8.15;;;;;;;5.81;89.29;100760.94;5073725;28;20051;-79
2022/09/30 00:58:40;;;;;;;8.90;8.00;;;;;;;5.77;89.74;100761.19;5072561;28;20028;-79
2022/09/30 01:01:06;;;;;;;8.40;7.43;;;;;;;5.79;89.54;100754.88;5062256;28;20111;-80
2022/09/30 01:03:35;;;;;;;10.00;8.35;;;;;;;5.78;89.45;100762.88;5061664;28;20111;-79
2022/09/30 01:06:01;;;;;;;9.73;7.85;;;;;;;5.77;89.75;100758.56;5070854;28;20032;-79
2022/09/30 01:08:27;;;;;;;9.30;8.20;;;;;;;5.71;88.87;100763.25;5071873;28;20021;-79
2022/09/30 01:10:52;;;;;;;11.60;8.18;;;;;;;5.68;89.41;100755.53;5072573;28;20032;-79
2022/09/30 01:13:19;;;;;;;12.82;8.93;;;;;;;5.65;89.35;100754.84;5072306;28;20406;-79
2022/09/30 01:16:11;;;;;;;9.60;8.65;;;;;;;5.67;89.67;100761.72;5073309;28;20032;-79
2022/09/30 01:19:14;;;;;;;8.88;8.05;;;;;;;5.67;89.14;100760.88;5060996;28;20439;-78
2022/09/30 01:21:50;;;;;;;10.75;8.45;;;;;;;5.56;88.99;100757.06;5066977;28;20074;-78
2022/09/30 01:24:30;;;;;;;12.68;8.95;;;;;;;5.56;89.50;100762.34;5077777;28;20032;-78
2022/09/30 01:27:30;;;;;;;10.80;9.15;;;;;;;5.58;89.60;100762.25;5072155;28;20029;-79
2022/09/30 01:30:04;;;;;;;10.57;8.13;;;;;;;5.54;89.46;100764.19;5072236;28;20084;-79
2022/09/30 01:32:52;;;;;;;10.27;9.27;;;;;;;5.52;89.38;100762.59;5068599;28;20035;-78
2022/09/30 01:35:30;;;;;;;9.90;8.57;;;;;;;5.47;89.45;100760.22;5072717;28;20043;-79
2022/09/30 01:38:07;;;;;;;11.55;9.00;;;;;;;5.40;89.39;100758.88;5072321;28;20708;-79
2022/09/30 01:40:50;;;;;;;11.70;9.93;;;;;;;5.42;90.03;100762.25;5077118;28;20020;-78
2022/09/30 01:43:37;;;;;;;11.05;9.27;;;;;;;5.39;89.96;100759.81;5071859;28;20031;-78
2022/09/30 01:46:07;;;;;;;12.02;8.77;;;;;;;5.37;89.84;100770.41;5071265;28;20686;-78
2022/09/30 01:48:45;;;;;;;10.40;9.00;;;;;;;5.35;89.48;100766.19;5072568;28;20139;-78
2022/09/30 01:51:23;;;;;;;9.33;8.43;;;;;;;5.36;89.99;100767.88;5070193;28;20047;-78
2022/09/30 01:53:55;;;;;;;9.75;8.75;;;;;;;5.34;89.85;100760.06;5072755;28;20308;-78
2022/09/30 01:56:26;;;;;;;10.13;9.02;;;;;;;5.31;90.04;100760.25;5075808;28;20032;-78
2022/09/30 01:58:59;;;;;;;13.07;9.45;;;;;;;5.28;89.66;100760.41;5074687;28;20134;-79
2022/09/30 02:01:38;;;;;;;9.52;8.63;;;;;;;5.29;89.61;100767.38;5059429;28;20043;-78
2022/09/30 02:04:08;;;;;;;16.60;9.25;;;;;;;5.25;90.09;100767.66;5059674;28;20480;-79
2022/09/30 02:06:44;;;;;;;10.68;9.57;;;;;;;5.25;90.32;100768.47;5091185;28;20376;-79
2022/09/30 02:09:14;;;;;;;10.00;9.10;;;;;;;5.23;90.31;100761.59;5086293;28;20063;-79
2022/09/30 02:11:41;;;;;;;;;;;;;;;5.34;88.90;100773.22;5070719;28;20024;-78
2022/09/30 02:14:22;;;;;;;10.13;9.13;;;;;;;5.26;90.24;100764.94;5090033;28;19937;-78
2022/09/30 02:17:01;;;;;;;10.95;9.48;;;;;;;5.24;90.19;100769.41;5089233;28;20112;-79
2022/09/30 02:19:42;;;;;;;11.10;9.85;;;;;;;5.24;89.77;100772.03;5074048;28;20058;-79
2022/09/30 02:22:22;;;;;;;11.23;9.73;;;;;;;5.21;90.33;100769.56;5073967;28;20139;-79
2022/09/30 02:24:58;;;;;;;15.05;10.48;;;;;;;5.17;90.38;100770.69;5070899;28;20059;-79
2022/09/30 02:27:39;;;;;;;10.80;9.70;;;;;;;5.15;90.42;100777.84;5066260;28;20016;-79
2022/09/30 02:30:08;;;;;;;12.48;9.80;;;;;;;5.13;89.87;100774.41;5076029;28;20021;-79
2022/09/30 02:32:38;;;;;;;11.38;10.18;;;;;;;5.08;89.63;100779.06;5069638;28;20443;-79
2022/09/30 02:35:10;;;;;;;10.68;9.68;;;;;;;5.10;90.07;100779.88;5074540;28;20027;-79
2022/09/30 02:37:49;;;;;;;11.13;9.93;;;;;;;5.09;89.74;100773.72;5082106;28;20039;-79
2022/09/30 02:40:52;;;;;;;12.02;9.95;;;;;;;5.10;89.83;100770.19;5068897;28;20020;-79
2022/09/30 02:43:19;;;;;;;12.20;10.55;;;;;;;5.04;89.89;100770.50;5037767;28;20047;-80
2022/09/30 02:46:02;;;;;;;11.18;10.10;;;;;;;5.00;90.47;100763.72;5082741;28;20054;-79
2022/09/30 02:48:39;;;;;;;11.25;9.68;;;;;;;4.95;89.88;100763.13;5078336;28;20039;-78
2022/09/30 02:51:37;;;;;;;10.38;9.35;;;;;;;4.99;90.25;100773.38;5075752;28;20104;-78
2022/09/30 02:54:15;;;;;;;10.30;9.27;;;;;;;4.93;90.49;100764.97;5044045;28;20048;-78
2022/09/30 02:57:08;;;;;;;11.52;10.18;;;;;;;4.95;90.68;100768.41;5071528;28;20038;-78
2022/09/30 02:59:34;;;;;;;11.20;10.10;;;;;;;4.89;90.83;100766.09;5082338;28;20410;-79
2022/09/30 03:01:59;;;;;;;13.30;10.65;;;;;;;4.89;91.07;100772.19;5070465;28;20020;-79
2022/09/30 03:04:29;;;;;;;15.38;11.57;;;;;;;4.88;90.90;100767.88;5078874;28;20031;-78
2022/09/30 03:06:55;;;;;;;13.73;11.30;;;;;;;4.86;90.75;100774.13;5065755;28;20048;-79
2022/09/30 03:09:27;;;;;;;12.75;11.45;;;;;;;4.85;90.97;100768.03;5081589;28;20016;-79
2022/09/30 03:12:00;;;;;;;12.73;11.48;;;;;;;4.82;91.05;100768.19;5079533;28;20032;-79
2022/09/30 03:14:41;;;;;;;13.57;12.25;;;;;;;4.85;91.39;100780.34;5067873;28;20043;-79
2022/09/30 03:17:45;;;;;;;15.88;12.90;;;;;;;4.84;92.00;100778.66;5073007;28;20098;-79
2022/09/30 03:20:16;;;;;;;13.90;12.40;;;;;;;4.86;91.32;100784.66;5025341;28;20141;-78
2022/09/30 03:22:52;;;;;;;14.77;12.07;;;;;;;4.86;91.05;100779.41;5081587;28;20036;-78
2022/09/30 03:25:43;;;;;;;14.80;12.63;;;;;;;4.86;91.44;100785.50;5071773;28;20040;-79
2022/09/30 03:28:28;;;;;;;15.23;12.52;;;;;;;4.82;91.60;100778.72;5084831;28;20016;-79
2022/09/30 03:31:13;;;;;;;15.07;12.95;;;;;;;4.81;91.73;100783.16;5071247;28;20498;-79
2022/09/30 03:33:54;;;;;;;15.85;12.98;;;;;;;4.79;91.83;100778.88;5075417;28;20075;-79
2022/09/30 03:36:46;;;;;;;14.70;13.07;;;;;;;4.81;91.56;100788.41;5080922;28;20086;-79
2022/09/30 03:39:25;;;;;;;18.05;14.13;;;;;;;4.77;91.23;100783.38;5081344;28;20414;-79
2022/09/30 03:42:09;;;;;;;14.50;13.00;;;;;;;4.78;92.06;100782.44;5086906;28;20020;-79
2022/09/30 03:44:41;;;;;;;16.40;13.95;;;;;;;4.74;91.55;100788.81;5064902;28;20127;-79
2022/09/30 03:47:10;;;;;;;17.63;15.43;;;;;;;4.74;92.13;100788.81;5079325;28;20501;-79
2022/09/30 03:49:41;;;;;;;18.50;15.98;;;;;;;4.72;91.73;100795.94;5082949;28;20027;-79
2022/09/30 03:52:09;;;;;;;18.33;15.23;;;;;;;4.72;92.68;100793.31;5089295;28;20187;-79
2022/09/30 03:54:54;;;;;;;17.65;15.20;;;;;;;4.67;92.42;100796.16;5071077;28;20024;-79
2022/09/30 03:57:20;;;;;;;17.60;14.13;;;;;;;4.73;92.05;100809.00;5078683;28;20099;-79
2022/09/30 03:59:49;;;;;;;16.75;14.95;;;;;;;4.72;92.22;100806.47;5075321;28;20124;-79
2022/09/30 04:02:14;;;;;;;18.77;16.88;;;;;;;4.72;92.23;100803.84;5077067;28;20029;-79
2022/09/30 04:04:40;;;;;;;16.55;14.82;;;;;;;4.71;92.19;100810.84;5079149;28;20030;-79
2022/09/30 04:07:06;;;;;;;17.77;15.98;;;;;;;4.70;92.51;100813.59;5075425;28;20483;-79
2022/09/30 04:09:31;;;;;;;17.05;14.90;;;;;;;4.70;92.46;100818.84;5073160;28;20036;-79
2022/09/30 04:11:57;;;;;;;16.50;14.80;;;;;;;4.67;91.98;100830.38;5073691;28;20028;-79
2022/09/30 04:14:22;;;;;;;18.17;16.15;;;;;;;4.68;92.31;100834.72;5076933;28;20085;-79
2022/09/30 04:16:47;;;;;;;17.48;15.38;;;;;;;4.67;92.02;100840.06;5069451;28;20103;-79
2022/09/30 04:19:12;;;;;;;16.35;14.65;;;;;;;4.64;91.56;100841.06;5090608;28;20028;-79
2022/09/30 04:21:38;;;;;;;16.20;14.43;;;;;;;4.62;91.91;100850.81;5077216;28;20031;-79
2022/09/30 04:24:04;;;;;;;16.27;14.60;;;;;;;4.57;91.75;100858.09;5089924;28;20380;-79
2022/09/30 04:26:29;;;;;;;16.65;14.90;;;;;;;4.53;92.16;100854.78;5085204;28;20060;-79
2022/09/30 04:28:57;;;;;;;16.88;15.15;;;;;;;4.52;91.49;100860.94;5070633;28;20057;-79
2022/09/30 04:31:23;;;;;;;16.88;15.10;;;;;;;4.51;91.74;100861.88;5074524;28;20029;-78
2022/09/30 04:33:49;;;;;;;17.15;15.35;;;;;;;4.51;91.94;100861.03;5079481;28;20055;-78
2022/09/30 04:36:14;;;;;;;17.60;15.75;;;;;;;4.52;92.32;100857.47;5072431;28;20480;-78
2022/09/30 04:38:40;;;;;;;17.98;16.08;;;;;;;4.50;92.41;100860.19;5074844;28;20135;-78
2022/09/30 04:41:06;;;;;;;21.48;16.00;;;;;;;4.50;92.49;100857.56;5072226;28;20092;-79
2022/09/30 04:43:33;;;;;;;17.80;15.90;;;;;;;4.52;92.63;100852.22;5074502;28;20096;-78
2022/09/30 04:45:59;;;;;;;18.95;16.38;;;;;;;4.49;92.58;100869.00;5077813;28;20032;-80
2022/09/30 04:48:26;;;;;;;18.88;15.73;;;;;;;4.49;92.96;100863.72;5059350;28;20032;-80
2022/09/30 04:50:52;;;;;;;18.25;15.80;;;;;;;4.45;92.99;100863.03;5078708;28;20032;-79
2022/09/30 04:53:18;;;;;;;18.75;15.95;;;;;;;4.45;93.14;100876.19;5087856;28;20101;-79
2022/09/30 04:55:44;;;;;;;20.80;16.10;;;;;;;4.44;92.91;100869.22;5072949;28;20119;-79
2022/09/30 04:58:10;;;;;;;17.77;15.77;;;;;;;4.39;92.68;100868.59;5073924;28;20043;-79
2022/09/30 05:00:36;;;;;;;18.33;16.38;;;;;;;4.39;92.73;100868.59;5073677;28;20236;-79
2022/09/30 05:03:02;;;;;;;17.77;15.25;;;;;;;4.40;92.74;100875.56;5073240;28;20020;-80
2022/09/30 05:05:28;;;;;;;18.38;15.57;;;;;;;4.38;92.82;100866.91;5073828;28;20328;-80
2022/09/30 05:07:59;;;;;;;18.80;15.50;;;;;;;4.39;93.22;100873.84;5074033;28;20028;-79
2022/09/30 05:10:25;;;;;;;17.77;14.77;;;;;;;4.40;92.81;100880.00;5071915;28;20021;-78
2022/09/30 05:12:51;;;;;;;17.13;15.20;;;;;;;4.39;92.99;100883.53;5070753;28;20037;-78
2022/09/30 05:15:17;;;;;;;18.63;15.90;;;;;;;4.36;92.76;100886.31;5073309;28;20387;-79
2022/09/30 05:17:42;;;;;;;18.25;16.15;;;;;;;4.35;92.75;100884.63;5072065;28;20043;-78
2022/09/30 05:20:09;;;;;;;18.45;15.93;;;;;;;4.31;92.83;100886.53;5080563;28;20024;-79
2022/09/30 05:22:35;;;;;;;16.98;15.07;;;;;;;4.31;92.98;100886.53;5076321;28;20048;-79
2022/09/30 05:25:02;;;;;;;17.10;15.27;;;;;;;4.31;92.87;100890.97;5073566;28;20082;-79
2022/09/30 05:27:28;;;;;;;20.55;15.95;;;;;;;4.29;92.67;100890.19;5064821;28;20464;-78
2022/09/30 05:29:53;;;;;;;22.10;16.75;;;;;;;4.27;93.06;100887.63;5076155;28;20052;-79
2022/09/30 05:32:20;;;;;;;18.73;15.90;;;;;;;4.26;93.26;100880.66;5071819;28;20064;-79
2022/09/30 05:34:46;;;;;;;19.52;16.48;;;;;;;4.29;93.49;100887.56;5073581;28;20103;-79
2022/09/30 05:37:11;;;;;;;16.85;15.10;;;;;;;4.26;93.67;100889.41;5083668;28;20487;-79
2022/09/30 05:39:36;;;;;;;20.00;15.65;;;;;;;4.29;93.33;100900.72;5072876;28;20033;-79
2022/09/30 05:42:02;;;;;;;21.05;15.77;;;;;;;4.28;93.42;100909.50;5073541;28;20031;-79
2022/09/30 05:44:27;;;;;;;16.90;15.10;;;;;;;4.28;93.34;100910.38;5081498;28;20039;-78
2022/09/30 05:46:52;;;;;;;17.23;15.18;;;;;;;4.28;93.61;100922.66;5097445;28;20048;-83
2022/09/30 05:49:18;;;;;;;17.40;15.43;;;;;;;4.25;93.76;100919.25;5103496;28;20075;-83
2022/09/30 05:51:43;;;;;;;19.42;15.52;;;;;;;4.22;93.89;100919.41;5101767;28;20124;-83
2022/09/30 05:54:09;;;;;;;19.75;16.23;;;;;;;4.26;93.92;100931.50;5087032;28;20037;-79
2022/09/30 05:56:39;;;;;;;17.65;15.68;;;;;;;4.23;94.11;100929.00;5073619;28;20472;-80
2022/09/30 05:59:08;;;;;;;17.60;15.70;;;;;;;4.23;94.04;100934.25;5059823;28;20463;-79
2022/09/30 06:01:33;;;;;;;20.50;16.23;;;;;;;4.25;94.07;100932.41;5074022;28;20032;-79
2022/09/30 06:03:59;;;;;;;18.45;16.48;;;;;;;4.24;94.50;100935.94;5076147;28;20037;-79
2022/09/30 06:06:25;;;;;;;18.20;15.63;;;;;;;4.27;94.38;100950.75;5067274;28;20487;-80
2022/09/30 06:08:50;;;;;;;17.48;15.57;;;;;;;4.28;94.57;100941.94;5060724;28;20086;-79
2022/09/30 06:11:18;;;;;;;18.83;16.40;;;;;;;4.29;94.90;100951.50;5065538;28;20028;-79
2022/09/30 06:13:46;;;;;;;18.83;16.63;;;;;;;4.30;95.58;100949.72;5069824;28;20144;-79
2022/09/30 06:16:12;;;;;;;18.02;16.10;;;;;;;4.31;95.67;100954.06;5064765;28;20036;-78
2022/09/30 06:18:40;;;;;;;18.65;16.73;;;;;;;4.32;95.74;100953.16;5067563;28;20538;-79
2022/09/30 06:21:07;;;;;;;18.52;16.58;;;;;;;4.34;95.84;100952.13;5064828;28;20116;-79
2022/09/30 06:23:34;;;;;;;18.27;16.38;;;;;;;4.40;96.49;100951.00;5061368;28;20036;-80
2022/09/30 06:26:00;;;;;;;19.45;16.90;;;;;;;4.42;96.72;100962.28;5064028;28;20064;-79
2022/09/30 06:28:26;;;;;;;17.08;15.00;;;;;;;4.42;96.58;100964.91;5078052;28;20115;-81
2022/09/30 06:30:52;;;;;;;19.17;15.43;;;;;;;4.43;96.77;100964.84;5074756;28;20088;-80
2022/09/30 06:33:18;;;;;;;19.45;16.17;;;;;;;4.47;96.99;100962.06;5070036;28;20029;-81
2022/09/30 06:35:46;;;;;;;20.45;15.73;;;;;;;4.49;97.15;100968.94;5072334;28;20488;-81
2022/09/30 06:38:14;;;;;;;19.35;16.73;;;;;;;4.53;97.52;100967.88;5079100;28;20375;-80
2022/09/30 06:40:39;;;;;;;22.70;17.25;;;;;;;4.57;98.22;100955.41;5067361;28;20158;-81
2022/09/30 06:43:05;;;;;;;21.30;18.25;;;;;;;4.62;98.54;100958.66;5068299;28;20052;-80
2022/09/30 06:45:31;;;;;;;24.98;18.77;;;;;;;4.67;99.02;100950.56;5077453;28;20094;-80
2022/09/30 06:48:01;;;;;;;23.58;19.45;;;;;;;4.69;99.54;100954.78;5080579;28;20167;-80
2022/09/30 06:50:26;;;;;;;;;;;;;;;4.75;98.46;100962.38;5077434;28;20376;-80
2022/09/30 06:52:56;;;;;;;23.37;18.43;;;;;;;4.77;99.09;100957.06;5074002;28;19970;-80
2022/09/30 06:55:23;;;;;;;27.77;20.85;;;;;;;4.81;99.77;100956.81;5076876;28;20283;-81
2022/09/30 06:57:48;;;;;;;25.83;21.23;;;;;;;4.86;100.00;100953.09;5084026;28;20467;-80
2022/09/30 07:00:16;;;;;;;25.80;21.73;;;;;;;4.90;100.00;100954.66;5077796;28;20016;-82
2022/09/30 07:02:41;;;;;;;25.77;22.00;;;;;;;4.93;100.00;100955.34;5090105;28;20035;-82
2022/09/30 07:05:07;;;;;;;28.38;22.92;;;;;;;4.99;100.00;100955.00;5095686;28;20029;-82
2022/09/30 07:07:33;;;;;;;27.38;22.75;;;;;;;5.06;100.00;100958.19;5103823;28;20013;-81
2022/09/30 07:09:59;;;;;;;31.33;22.85;;;;;;;5.10;100.00;100954.47;5094415;28;20019;-81
2022/09/30 07:12:25;;;;;;;29.30;24.23;;;;;;;5.18;100.00;100961.97;5104717;28;20028;-82
2022/09/30 07:14:51;;;;;;;28.75;23.83;;;;;;;5.26;100.00;100959.81;5113740;28;20028;-82
2022/09/30 07:17:17;;;;;;;29.42;24.45;;;;;;;5.31;100.00;100949.88;5097366;28;20028;-82
2022/09/30 07:19:42;;;;;;;32.78;26.58;;;;;;;5.39;100.00;100946.81;5098053;28;20048;-82
2022/09/30 07:24:51;;;;;;;36.38;27.75;;;;;;;5.59;100.00;100953.66;5087154;28;20051;-82
2022/09/30 07:27:18;;;;;;;36.45;28.52;;;;;;;5.70;100.00;100956.56;5078996;28;20029;-80
2022/09/30 07:29:44;;;;;;;37.47;29.83;;;;;;;5.84;100.00;100963.69;5089968;28;20055;-80
2022/09/30 07:32:11;;;;;;;33.67;29.70;;;;;;;5.91;100.00;100965.09;5079586;28;20052;-80
2022/09/30 07:34:37;;;;;;;36.90;29.92;;;;;;;6.03;100.00;100968.84;5080921;28;20695;-81
2022/09/30 07:37:03;;;;;;;38.28;29.90;;;;;;;6.22;100.00;100973.09;5086006;28;20475;-80
2022/09/30 07:39:30;;;;;;;42.72;31.13;;;;;;;6.33;100.00;100968.06;5079302;28;20025;-80
2022/09/30 07:41:55;;;;;;;36.03;28.80;;;;;;;6.43;100.00;100974.53;5088703;28;20025;-80
2022/09/30 07:44:27;;;;;;;31.40;27.67;;;;;;;6.54;100.00;100970.41;5091281;28;20035;-80
2022/09/30 07:46:53;;;;;;;38.13;28.77;;;;;;;6.67;100.00;100980.16;5088283;28;20033;-80
2022/09/30 07:49:24;;;;;;;34.17;28.08;;;;;;;6.77;100.00;100972.56;5081890;28;20029;-81
2022/09/30 07:51:54;;;;;;;33.35;28.70;;;;;;;6.89;100.00;100967.50;5086147;28;20083;-82
2022/09/30 07:54:22;;;;;;;34.13;28.20;;;;;;;6.98;100.00;100956.41;5098953;28;20490;-81
2022/09/30 07:56:48;;;;;;;33.38;27.95;;;;;;;7.08;100.00;100960.19;5085109;28;20025;-80
2022/09/30 07:59:14;;;;;;;30.90;27.50;;;;;;;7.19;100.00;100963.03;5064073;28;20534;-80
2022/09/30 08:01:40;;;;;;;30.23;26.60;;;;;;;7.39;100.00;100963.59;5062463;28;20040;-81
2022/09/30 08:04:07;;;;;;;31.70;28.27;;;;;;;7.44;100.00;100948.31;5082713;28;20020;-82
2022/09/30 08:06:38;;;;;;;31.75;27.48;;;;;;;7.75;100.00;100959.63;5077903;28;20028;-81
2022/09/30 08:09:03;;;;;;;31.40;26.70;;;;;;;7.89;100.00;100959.59;5077743;28;20117;-81
2022/09/30 08:11:32;;;;;;;30.45;26.15;;;;;;;8.08;100.00;100950.50;5077396;28;20025;-81
2022/09/30 08:13:57;;;;;;;33.42;28.13;;;;;;;8.44;100.00;100957.00;5076587;28;20024;-81
2022/09/30 08:16:24;;;;;;;28.50;25.38;;;;;;;8.63;100.00;100954.84;5076349;28;20101;-81
2022/09/30 08:18:55;;;;;;;28.10;25.10;;;;;;;8.88;100.00;100956.69;5080941;28;20024;-81
2022/09/30 08:21:20;;;;;;;29.63;26.42;;;;;;;9.11;99.84;100962.22;5108301;28;20020;-82
2022/09/30 08:23:45;;;;;;;29.05;25.25;;;;;;;9.29;98.64;100964.53;5103263;28;20066;-83
2022/09/30 08:26:12;;;;;;;28.70;25.70;;;;;;;9.47;97.90;100957.97;5091402;28;20025;-82
2022/09/30 08:28:38;;;;;;;28.58;25.40;;;;;;;9.70;96.80;100959.00;5107589;28;20047;-82
2022/09/30 08:31:10;;;;;;;29.48;24.13;;;;;;;9.90;95.31;100965.53;5098224;28;20051;-82
2022/09/30 08:33:37;;;;;;;25.92;22.70;;;;;;;10.12;94.84;100959.50;5090791;28;20116;-81
2022/09/30 08:36:04;;;;;;;26.35;23.50;;;;;;;10.39;93.98;100961.13;5059301;28;20036;-80
2022/09/30 08:38:30;;;;;;;27.10;22.67;;;;;;;10.58;92.81;100962.44;5095750;28;20035;-80
2022/09/30 08:41:33;;;;;;;24.08;21.40;;;;;;;10.81;92.37;100958.88;5090367;28;20021;-80
2022/09/30 08:44:20;;;;;;;22.80;20.48;;;;;;;11.08;91.35;100950.59;5048683;28;20051;-81
2022/09/30 08:46:53;;;;;;;22.55;19.98;;;;;;;11.40;90.01;100962.38;5075665;28;20056;-79
2022/09/30 08:49:31;;;;;;;23.45;19.60;;;;;;;11.56;89.98;100959.34;5062778;28;20033;-79
2022/09/30 08:51:59;;;;;;;20.15;18.00;;;;;;;11.77;89.31;100960.28;5074967;28;20097;-79
2022/09/30 08:54:30;;;;;;;19.52;17.50;;;;;;;12.06;88.61;100966.94;5074123;28;20035;-80
2022/09/30 08:56:56;;;;;;;20.67;17.15;;;;;;;12.22;88.31;100962.06;5074029;28;20035;-80
2022/09/30 08:59:42;;;;;;;18.88;16.00;;;;;;;12.45;87.95;100959.34;5074074;28;20603;-80
2022/09/30 09:02:28;;;;;;;18.55;16.52;;;;;;;12.67;86.44;100963.72;5077471;28;20533;-80
2022/09/30 09:04:59;;;;;;;16.92;15.27;;;;;;;13.02;85.43;100960.72;5082773;28;20029;-79
2022/09/30 09:07:54;;;;;;;16.73;14.13;;;;;;;13.18;86.15;100954.94;5086079;28;20470;-78
2022/09/30 09:10:36;;;;;;;15.65;13.57;;;;;;;13.31;83.82;100934.22;5064095;28;20081;-79
2022/09/30 09:13:17;;;;;;;16.83;13.02;;;;;;;13.55;82.55;100945.59;5074575;28;20035;-79
2022/09/30 09:16:04;;;;;;;14.68;13.18;;;;;;;13.79;82.55;100956.78;5072254;28;20036;-79
2022/09/30 09:18:52;;;;;;;14.80;12.20;;;;;;;13.89;81.54;100962.16;5071920;28;20497;-79
2022/09/30 09:21:37;;;;;;;15.32;13.02;;;;;;;14.15;82.23;100957.13;5056485;28;20027;-77
2022/09/30 09:24:11;;;;;;;14.20;12.60;;;;;;;14.33;80.27;100957.31;5068496;28;20033;-79
2022/09/30 09:26:36;;;;;;;12.43;10.68;;;;;;;14.57;77.91;100964.06;5077619;28;20086;-79
2022/09/30 09:29:19;;;;;;;12.60;11.20;;;;;;;14.71;79.32;100954.81;5073569;28;20025;-79
2022/09/30 09:31:46;;;;;;;12.63;11.23;;;;;;;14.93;78.30;100962.53;5073267;28;20535;-79
2022/09/30 09:34:12;;;;;;;12.50;11.20;;;;;;;15.17;77.10;100969.22;5065846;28;20113;-79
2022/09/30 09:36:41;;;;;;;12.20;10.73;;;;;;;15.29;76.03;100973.44;5066675;28;20078;-79
2022/09/30 09:39:16;;;;;;;12.77;10.95;;;;;;;15.38;74.89;100969.03;5074037;28;20036;-79
2022/09/30 09:42:19;;;;;;;12.05;10.80;;;;;;;15.62;76.91;100965.88;5060124;28;20028;-79
2022/09/30 09:45:01;;;;;;;10.93;9.73;;;;;;;15.75;74.30;100962.00;5068800;28;20035;-79
2022/09/30 09:47:26;;;;;;;11.70;9.50;;;;;;;15.97;73.20;100958.09;5077260;28;20032;-79
2022/09/30 09:50:03;;;;;;;9.68;8.52;;;;;;;16.04;73.13;100957.34;5073887;28;20035;-80
2022/09/30 09:52:53;;;;;;;10.60;9.40;;;;;;;16.21;73.56;100955.69;5073587;28;20048;-79
2022/09/30 09:55:21;;;;;;;13.10;9.20;;;;;;;16.28;71.81;100931.78;5086600;28;20030;-78
2022/09/30 09:57:46;;;;;;;9.50;7.97;;;;;;;16.59;69.59;100936.78;5091302;28;20073;-80
2022/09/30 10:03:08;;;;;;;10.48;7.30;;;;;;;16.90;68.48;100950.63;5053471;28;20044;-80
2022/09/30 10:05:41;;;;;;;7.70;6.90;;;;;;;16.99;66.83;100955.06;5053710;28;20025;-79
2022/09/30 10:08:15;;;;;;;8.30;7.40;;;;;;;17.13;67.66;100950.94;5054192;28;20033;-79
2022/09/30 10:10:44;;;;;;;8.02;7.22;;;;;;;17.23;68.02;100950.84;5068268;28;20077;-79
2022/09/30 10:13:17;;;;;;;7.38;6.70;;;;;;;17.34;68.49;100942.53;5073618;28;20044;-79
2022/09/30 10:15:43;;;;;;;7.03;6.20;;;;;;;17.48;66.11;100943.75;5074379;28;20028;-80
2022/09/30 10:18:18;;;;;;;6.47;5.85;;;;;;;17.59;64.68;100949.88;5079293;28;20170;-80
2022/09/30 10:20:51;;;;;;;6.00;5.40;;;;;;;17.82;67.27;100952.78;5073330;28;20029;-79
2022/09/30 10:23:27;;;;;;;6.88;5.70;;;;;;;17.89;65.72;100943.13;5063593;28;20037;-80
2022/09/30 10:26:23;;;;;;;7.18;5.57;;;;;;;18.13;67.34;100961.16;5081713;28;20410;-80
2022/09/30 10:28:58;;;;;;;5.95;5.45;;;;;;;18.36;63.97;100957.84;5061835;28;20114;-80
2022/09/30 10:31:43;;;;;;;8.00;5.13;;;;;;;18.48;65.78;100957.38;5064267;28;20029;-79
2022/09/30 10:34:13;;;;;;;7.03;5.55;;;;;;;18.38;59.62;100959.34;5068081;28;20740;-80
2022/09/30 10:36:42;;;;;;;5.32;4.82;;;;;;;18.30;60.32;100954.81;5082305;28;20024;-80
2022/09/30 10:39:17;;;;;;;;;;;;;;;18.47;66.43;100961.06;5066938;28;20032;-80
2022/09/30 10:41:43;;;;;;;4.65;4.25;;;;;;;18.42;57.93;100959.88;5083495;28;19999;-80
2022/09/30 10:44:18;;;;;;;5.13;4.70;;;;;;;18.46;60.47;100958.53;5093039;28;20052;-79
2022/09/30 10:46:46;;;;;;;4.15;3.05;;;;;;;18.36;56.17;100949.78;5076157;28;20087;-80
2022/09/30 10:49:24;;;;;;;5.80;4.13;;;;;;;18.31;60.05;100959.19;5070126;28;20032;-82
2022/09/30 10:51:50;;;;;;;4.63;3.60;;;;;;;18.43;59.15;100964.25;5072440;28;20076;-80
2022/09/30 10:54:47;;;;;;;5.15;3.42;;;;;;;18.49;61.42;100952.81;5070541;28;20068;-80
2022/09/30 10:57:25;;;;;;;5.18;3.63;;;;;;;18.47;58.18;100958.38;5061068;28;20048;-80
2022/09/30 10:59:59;;;;;;;2.90;2.53;;;;;;;18.37;56.19;100960.38;5075276;28;20028;-81
2022/09/30 11:03:15;;;;;;;3.90;2.92;;;;;;;18.18;59.22;100957.97;5065245;28;20058;-79
2022/09/30 11:05:43;;;;;;;3.03;2.75;;;;;;;18.01;57.62;100952.56;4999352;28;20061;-79
2022/09/30 11:08:29;;;;;;;3.07;2.77;;;;;;;18.19;58.17;100954.31;5055308;28;20124;-79
2022/09/30 11:11:08;;;;;;;3.40;3.13;;;;;;;18.22;57.88;100952.13;5065593;28;20753;-80
2022/09/30 11:13:41;;;;;;;;;;;;;;;18.51;60.29;100952.66;5071723;28;20414;-80
2022/09/30 11:16:40;;;;;;;4.95;3.40;;;;;;;18.58;58.23;100949.13;5072866;28;19913;-80
2022/09/30 11:19:38;;;;;;;4.05;3.22;;;;;;;18.58;58.26;100945.59;5059764;28;20036;-80
2022/09/30 11:22:45;;;;;;;5.22;3.35;;;;;;;18.68;58.31;100946.28;5076135;28;20412;-80
2022/09/30 11:25:23;;;;;;;3.40;3.10;;;;;;;18.77;57.96;100949.78;5062353;28;20025;-80
2022/09/30 11:28:12;;;;;;;3.58;3.28;;;;;;;18.61;56.31;100951.47;5088867;28;20115;-80
2022/09/30 11:30:55;;;;;;;4.55;3.50;;;;;;;18.61;56.13;100940.72;5085039;28;20028;-78
2022/09/30 11:33:23;;;;;;;3.67;3.38;;;;;;;18.62;57.24;100937.03;5070208;28;20110;-79
2022/09/30 11:36:16;;;;;;;3.17;2.85;;;;;;;18.91;58.79;100942.94;5084332;28;20017;-80
2022/09/30 11:39:01;;;;;;;3.05;2.80;;;;;;;18.96;57.52;100929.81;5096318;28;20032;-82
2022/09/30 11:41:29;;;;;;;3.20;2.90;;;;;;;18.97;54.76;100935.03;5096079;28;20025;-82
2022/09/30 11:44:08;;;;;;;3.25;3.05;;;;;;;18.97;55.40;100921.56;5088185;28;20021;-81
2022/09/30 11:46:44;;;;;;;3.10;2.78;;;;;;;18.95;56.43;100917.34;5087997;28;20040;-81
2022/09/30 11:49:16;;;;;;;4.30;3.20;;;;;;;18.97;54.72;100918.88;5082745;28;20041;-82
2022/09/30 11:52:00;;;;;;;3.47;3.00;;;;;;;18.91;55.31;100916.03;5088940;28;20093;-82